sensor_id;sensor_type;location;lat;lon;timestamp;pressure;altitude;pressure_sealevel;temperature;humidity
3082;BME280;1551;51.046;7.010;2024-03-02T00:01:44;99437.28;;;9.07;70.29
3082;BME280;1551;51.046;7.010;2024-03-02T00:04:33;99438.09;;;9.08;69.99
3082;BME280;1551;51.046;7.010;2024-03-02T00:07:22;99436.28;;;9.13;70.27
3082;BME280;1551;51.046;7.010;2024-03-02T00:10:16;99437.97;;;9.14;70.75
3082;BME280;1551;51.046;7.010;2024-03-02T00:13:08;99426.09;;;9.11;69.74
3082;BME280;1551;51.046;7.010;2024-03-02T00:15:57;99432.84;;;9.14;70.25
3082;BME280;1551;51.046;7.010;2024-03-02T00:18:46;99432.84;;;9.14;70.25
3082;BME280;1551;51.046;7.010;2024-03-02T00:21:35;99425.16;;;9.15;70.48
3082;BME280;1551;51.046;7.010;2024-03-02T00:24:31;99430.13;;;9.20;70.61
3082;BME280;1551;51.046;7.010;2024-03-02T00:27:21;99422.34;;;9.26;69.99
3082;BME280;1551;51.046;7.010;2024-03-02T00:30:49;99416.34;;;9.28;70.63
3082;BME280;1551;51.046;7.010;2024-03-02T00:33:46;99414.59;;;9.29;69.71
3082;BME280;1551;51.046;7.010;2024-03-02T00:36:36;99407.59;;;9.37;69.72
3082;BME280;1551;51.046;7.010;2024-03-02T00:39:25;99404.97;;;9.40;69.61
3082;BME280;1551;51.046;7.010;2024-03-02T00:42:14;99394.63;;;9.44;69.70
3082;BME280;1551;51.046;7.010;2024-03-02T00:45:07;99395.34;;;9.49;68.88
3082;BME280;1551;51.046;7.010;2024-03-02T00:47:56;99396.94;;;9.53;69.28
3082;BME280;1551;51.046;7.010;2024-03-02T00:50:45;99401.16;;;9.54;69.38
3082;BME280;1551;51.046;7.010;2024-03-02T00:53:35;99390.91;;;9.56;68.21
3082;BME280;1551;51.046;7.010;2024-03-02T00:56:24;99389.28;;;9.53;69.27
3082;BME280;1551;51.046;7.010;2024-03-02T00:59:13;99401.72;;;9.65;69.03
3082;BME280;1551;51.046;7.010;2024-03-02T01:02:02;99399.13;;;9.67;68.13
3082;BME280;1551;51.046;7.010;2024-03-02T01:04:51;99399.97;;;9.67;67.83
3082;BME280;1551;51.046;7.010;2024-03-02T01:07:40;99405.94;;;9.66;68.07
3082;BME280;1551;51.046;7.010;2024-03-02T01:10:29;99406.84;;;9.65;67.66
3082;BME280;1551;51.046;7.010;2024-03-02T01:13:18;99404.28;;;9.65;67.63
3082;BME280;1551;51.046;7.010;2024-03-02T01:16:07;99403.47;;;9.63;68.16
3082;BME280;1551;51.046;7.010;2024-03-02T01:18:56;99407.81;;;9.60;67.47
3082;BME280;1551;51.046;7.010;2024-03-02T01:21:45;99397.69;;;9.57;67.77
3082;BME280;1551;51.046;7.010;2024-03-02T01:24:34;99391.84;;;9.53;68.05
3082;BME280;1551;51.046;7.010;2024-03-02T01:27:23;99397.81;;;9.52;67.96
3082;BME280;1551;51.046;7.010;2024-03-02T01:30:12;99398.72;;;9.50;67.69
3082;BME280;1551;51.046;7.010;2024-03-02T01:33:01;99390.25;;;9.49;67.08
3082;BME280;1551;51.046;7.010;2024-03-02T01:35:50;99397.97;;;9.46;67.79
3082;BME280;1551;51.046;7.010;2024-03-02T01:38:39;99395.41;;;9.46;67.63
3082;BME280;1551;51.046;7.010;2024-03-02T01:41:28;99391.19;;;9.45;68.01
3082;BME280;1551;51.046;7.010;2024-03-02T01:44:17;99393.72;;;9.45;67.52
3082;BME280;1551;51.046;7.010;2024-03-02T01:47:06;99391.16;;;9.47;67.45
3082;BME280;1551;51.046;7.010;2024-03-02T01:49:56;99386.78;;;9.50;67.28
3082;BME280;1551;51.046;7.010;2024-03-02T01:52:45;99395.00;;;9.61;66.97
3082;BME280;1551;51.046;7.010;2024-03-02T01:55:34;99382.94;;;9.66;66.25
3082;BME280;1551;51.046;7.010;2024-03-02T01:58:23;99377.69;;;9.73;67.05
3082;BME280;1551;51.046;7.010;2024-03-02T02:01:12;99377.56;;;9.77;65.90
3082;BME280;1551;51.046;7.010;2024-03-02T02:04:01;99376.66;;;9.78;66.28
3082;BME280;1551;51.046;7.010;2024-03-02T02:06:50;99389.56;;;9.74;65.86
3082;BME280;1551;51.046;7.010;2024-03-02T02:09:42;99395.38;;;9.79;65.85
3082;BME280;1551;51.046;7.010;2024-03-02T02:12:32;99392.56;;;9.88;65.48
3082;BME280;1551;51.046;7.010;2024-03-02T02:15:22;99389.94;;;9.91;65.50
3082;BME280;1551;51.046;7.010;2024-03-02T02:18:11;99395.72;;;9.97;65.01
3082;BME280;1551;51.046;7.010;2024-03-02T02:21:00;99384.50;;;10.01;64.78
3082;BME280;1551;51.046;7.010;2024-03-02T02:23:49;99383.56;;;10.05;65.41
3082;BME280;1551;51.046;7.010;2024-03-02T02:26:38;99386.97;;;10.04;65.14
3082;BME280;1551;51.046;7.010;2024-03-02T02:29:28;99382.63;;;10.08;64.52
3082;BME280;1551;51.046;7.010;2024-03-02T02:32:17;99390.31;;;10.08;63.95
3082;BME280;1551;51.046;7.010;2024-03-02T02:35:07;99381.03;;;10.04;nan
3082;BME280;1551;51.046;7.010;2024-03-02T02:37:57;99384.34;;;10.07;64.42
3082;BME280;1551;51.046;7.010;2024-03-02T02:40:46;99382.78;;;10.03;64.18
3082;BME280;1551;51.046;7.010;2024-03-02T02:43:35;99395.41;;;10.08;64.38
3082;BME280;1551;51.046;7.010;2024-03-02T02:46:24;99394.47;;;10.12;64.21
3082;BME280;1551;51.046;7.010;2024-03-02T02:49:13;99393.50;;;10.16;63.92
3082;BME280;1551;51.046;7.010;2024-03-02T02:52:02;99383.19;;;10.19;63.66
3082;BME280;1551;51.046;7.010;2024-03-02T02:54:51;99376.31;;;10.21;64.19
3082;BME280;1551;51.046;7.010;2024-03-02T02:57:42;99383.19;;;10.19;64.04
3082;BME280;1551;51.046;7.010;2024-03-02T03:00:32;99379.69;;;10.21;64.26
3082;BME280;1551;51.046;7.010;2024-03-02T03:03:21;99381.38;;;10.22;63.15
3082;BME280;1551;51.046;7.010;2024-03-02T03:06:10;99379.50;;;10.27;63.78
3082;BME280;1551;51.046;7.010;2024-03-02T03:08:59;99381.34;;;10.24;63.67
3082;BME280;1551;51.046;7.010;2024-03-02T03:11:48;99374.53;;;10.23;63.22
3082;BME280;1551;51.046;7.010;2024-03-02T03:14:37;99379.69;;;10.21;63.99
3082;BME280;1551;51.046;7.010;2024-03-02T03:17:26;99378.13;;;10.17;63.39
3082;BME280;1551;51.046;7.010;2024-03-02T03:20:16;99383.28;;;10.16;63.42
3082;BME280;1551;51.046;7.010;2024-03-02T03:23:05;99390.22;;;10.12;63.45
3082;BME280;1551;51.046;7.010;2024-03-02T03:25:54;99388.34;;;10.17;64.02
3082;BME280;1551;51.046;7.010;2024-03-02T03:28:43;99386.59;;;10.19;63.63
3082;BME280;1551;51.046;7.010;2024-03-02T03:31:32;99404.50;;;10.18;64.18
3082;BME280;1551;51.046;7.010;2024-03-02T03:34:21;99394.19;;;10.21;64.16
3082;BME280;1551;51.046;7.010;2024-03-02T03:37:11;99391.66;;;10.21;63.14
3082;BME280;1551;51.046;7.010;2024-03-02T03:40:01;99382.34;;;10.18;63.78
3082;BME280;1551;51.046;7.010;2024-03-02T03:42:50;99392.56;;;10.18;63.35
3082;BME280;1551;51.046;7.010;2024-03-02T03:45:40;99400.28;;;10.17;63.70
3082;BME280;1551;51.046;7.010;2024-03-02T03:48:30;99404.63;;;10.15;63.61
3082;BME280;1551;51.046;7.010;2024-03-02T03:51:19;99408.03;;;10.14;63.33
3082;BME280;1551;51.046;7.010;2024-03-02T03:54:08;99403.78;;;10.13;63.92
3082;BME280;1551;51.046;7.010;2024-03-02T03:57:00;99405.53;;;10.11;62.87
3082;BME280;1551;51.046;7.010;2024-03-02T03:59:49;99405.78;;;10.03;62.98
3082;BME280;1551;51.046;7.010;2024-03-02T04:02:38;99410.25;;;9.95;64.27
3082;BME280;1551;51.046;7.010;2024-03-02T04:05:27;99407.75;;;9.94;64.49
3082;BME280;1551;51.046;7.010;2024-03-02T04:08:16;99400.94;;;9.93;64.05
3082;BME280;1551;51.046;7.010;2024-03-02T04:11:05;99402.13;;;9.81;64.23
3082;BME280;1551;51.046;7.010;2024-03-02T04:13:55;99367.09;;;9.55;65.09
3082;BME280;1551;51.046;7.010;2024-03-02T04:16:44;99400.69;;;9.73;64.54
3082;BME280;1551;51.046;7.010;2024-03-02T04:19:33;99400.69;;;9.73;65.14
3082;BME280;1551;51.046;7.010;2024-03-02T04:22:23;99406.66;;;9.72;65.70
3082;BME280;1551;51.046;7.010;2024-03-02T04:25:12;99411.69;;;9.75;64.91
3082;BME280;1551;51.046;7.010;2024-03-02T04:28:01;99411.84;;;9.68;65.47
3082;BME280;1551;51.046;7.010;2024-03-02T04:30:50;99406.97;;;9.61;64.95
3082;BME280;1551;51.046;7.010;2024-03-02T04:33:38;99412.41;;;9.47;65.78
3082;BME280;1551;51.046;7.010;2024-03-02T04:36:27;99408.31;;;9.42;66.68
3082;BME280;1551;51.046;7.010;2024-03-02T04:39:16;99412.38;;;9.49;66.22
3082;BME280;1551;51.046;7.010;2024-03-02T04:42:05;99417.50;;;9.47;65.84
3082;BME280;1551;51.046;7.010;2024-03-02T04:44:54;99417.69;;;9.41;66.02
3082;BME280;1551;51.046;7.010;2024-03-02T04:47:43;99410.22;;;9.34;66.83
3082;BME280;1551;51.046;7.010;2024-03-02T04:50:32;99413.06;;;9.23;66.94
3082;BME280;1551;51.046;7.010;2024-03-02T04:53:21;99426.72;;;9.21;66.95
3082;BME280;1551;51.046;7.010;2024-03-02T04:56:10;99429.50;;;9.12;67.48
3082;BME280;1551;51.046;7.010;2024-03-02T04:59:27;99425.38;;;9.06;67.57
3082;BME280;1551;51.046;7.010;2024-03-02T05:02:16;99443.28;;;9.05;67.83
3082;BME280;1551;51.046;7.010;2024-03-02T05:05:06;99444.88;;;9.09;67.89
3082;BME280;1551;51.046;7.010;2024-03-02T05:07:55;99445.78;;;9.06;67.56
3082;BME280;1551;51.046;7.010;2024-03-02T05:10:44;99445.84;;;9.03;67.47
3082;BME280;1551;51.046;7.010;2024-03-02T05:13:33;99436.72;;;8.94;68.32
3082;BME280;1551;51.046;7.010;2024-03-02T05:16:22;99448.69;;;8.91;68.58
3082;BME280;1551;51.046;7.010;2024-03-02T05:19:11;99442.03;;;8.85;69.00
3082;BME280;1551;51.046;7.010;2024-03-02T05:22:00;99432.75;;;8.83;68.84
3082;BME280;1551;51.046;7.010;2024-03-02T05:24:49;99429.50;;;8.75;68.46
3082;BME280;1551;51.046;7.010;2024-03-02T05:27:38;99423.66;;;8.71;69.37
3082;BME280;1551;51.046;7.010;2024-03-02T05:30:27;99423.78;;;8.67;69.38
3082;BME280;1551;51.046;7.010;2024-03-02T05:33:16;99391.22;;;8.41;69.18
3082;BME280;1551;51.046;7.010;2024-03-02T05:36:05;99426.63;;;8.53;69.90
3082;BME280;1551;51.046;7.010;2024-03-02T05:38:54;99430.91;;;8.51;70.56
3082;BME280;1551;51.046;7.010;2024-03-02T05:41:43;99424.25;;;8.46;70.33
3082;BME280;1551;51.046;7.010;2024-03-02T05:44:32;99432.75;;;8.46;70.52
3082;BME280;1551;51.046;7.010;2024-03-02T05:47:21;99427.69;;;8.43;70.74
3082;BME280;1551;51.046;7.010;2024-03-02T05:50:10;99421.00;;;8.39;70.83
3082;BME280;1551;51.046;7.010;2024-03-02T05:52:59;99428.59;;;8.41;71.05
3082;BME280;1551;51.046;7.010;2024-03-02T05:55:48;99423.59;;;8.36;71.02
3082;BME280;1551;51.046;7.010;2024-03-02T05:58:41;99430.41;;;8.36;71.50
3082;BME280;1551;51.046;7.010;2024-03-02T06:01:49;99433.00;;;8.34;71.67
3082;BME280;1551;51.046;7.010;2024-03-02T06:04:41;99426.19;;;8.35;71.53
3082;BME280;1551;51.046;7.010;2024-03-02T06:07:30;99434.66;;;8.37;71.31
3082;BME280;1551;51.046;7.010;2024-03-02T06:10:19;99433.75;;;8.38;71.90
3082;BME280;1551;51.046;7.010;2024-03-02T06:13:09;99438.00;;;8.39;71.32
3082;BME280;1551;51.046;7.010;2024-03-02T06:15:58;99441.41;;;8.39;71.63
3082;BME280;1551;51.046;7.010;2024-03-02T06:18:47;99439.66;;;8.41;71.72
3082;BME280;1551;51.046;7.010;2024-03-02T06:21:36;99437.94;;;8.40;71.41
3082;BME280;1551;51.046;7.010;2024-03-02T06:24:25;99452.31;;;8.44;71.43
3082;BME280;1551;51.046;7.010;2024-03-02T06:27:15;99450.63;;;8.43;71.67
3082;BME280;1551;51.046;7.010;2024-03-02T06:30:04;99449.84;;;8.41;71.45
3082;BME280;1551;51.046;7.010;2024-03-02T06:32:53;99459.09;;;8.45;71.65
3082;BME280;1551;51.046;7.010;2024-03-02T06:35:42;99455.63;;;8.48;71.64
3082;BME280;1551;51.046;7.010;2024-03-02T06:38:31;99450.44;;;8.52;71.74
3082;BME280;1551;51.046;7.010;2024-03-02T06:41:21;99452.94;;;8.55;71.42
3082;BME280;1551;51.046;7.010;2024-03-02T06:44:10;99456.28;;;8.56;71.23
3082;BME280;1551;51.046;7.010;2024-03-02T06:46:59;99454.50;;;8.61;71.14
3082;BME280;1551;51.046;7.010;2024-03-02T06:49:48;99465.47;;;8.64;71.49
3082;BME280;1551;51.046;7.010;2024-03-02T06:52:37;99475.63;;;8.67;71.58
3082;BME280;1551;51.046;7.010;2024-03-02T06:55:26;99481.31;;;8.78;70.62
3082;BME280;1551;51.046;7.010;2024-03-02T06:58:15;99488.91;;;8.81;70.82
3082;BME280;1551;51.046;7.010;2024-03-02T07:01:04;99493.00;;;8.88;71.33
3082;BME280;1551;51.046;7.010;2024-03-02T07:03:53;99481.97;;;8.86;70.96
3082;BME280;1551;51.046;7.010;2024-03-02T07:06:42;99477.66;;;8.90;70.53
3082;BME280;1551;51.046;7.010;2024-03-02T07:09:31;99482.59;;;8.97;70.77
3082;BME280;1551;51.046;7.010;2024-03-02T07:12:20;99486.78;;;9.00;70.21
3082;BME280;1551;51.046;7.010;2024-03-02T07:15:09;99484.00;;;9.09;70.24
3082;BME280;1551;51.046;7.010;2024-03-02T07:18:18;99487.31;;;9.13;69.45
3082;BME280;1551;51.046;7.010;2024-03-02T07:21:07;99496.56;;;9.18;69.31
3082;BME280;1551;51.046;7.010;2024-03-02T07:23:56;99489.53;;;9.26;69.92
3082;BME280;1551;51.046;7.010;2024-03-02T07:26:45;99490.94;;;9.38;68.86
3082;BME280;1551;51.046;7.010;2024-03-02T07:29:34;99492.47;;;9.45;69.51
3082;BME280;1551;51.046;7.010;2024-03-02T07:32:23;99496.53;;;9.53;68.54
3082;BME280;1551;51.046;7.010;2024-03-02T07:35:12;99512.53;;;9.60;68.93
3082;BME280;1551;51.046;7.010;2024-03-02T07:38:03;99491.72;;;9.75;68.37
3082;BME280;1551;51.046;7.010;2024-03-02T07:40:52;99509.41;;;9.83;67.86
3082;BME280;1551;51.046;7.010;2024-03-02T07:43:44;99516.59;;;10.01;67.28
3082;BME280;1551;51.046;7.010;2024-03-02T07:46:33;99517.84;;;10.18;67.38
3082;BME280;1551;51.046;7.010;2024-03-02T07:49:22;99520.81;;;10.34;66.80
3082;BME280;1551;51.046;7.010;2024-03-02T07:52:11;99520.81;;;10.34;65.94
3082;BME280;1551;51.046;7.010;2024-03-02T07:55:00;99505.59;;;10.29;66.11
3082;BME280;1551;51.046;7.010;2024-03-02T07:57:49;99506.50;;;10.27;65.65
3082;BME280;1551;51.046;7.010;2024-03-02T08:00:39;99507.66;;;10.48;65.29
3082;BME280;1551;51.046;7.010;2024-03-02T08:03:29;99519.00;;;10.67;64.88
3082;BME280;1551;51.046;7.010;2024-03-02T08:06:18;99514.09;;;10.88;63.97
3082;BME280;1551;51.046;7.010;2024-03-02T08:09:09;99530.56;;;11.07;64.30
3082;BME280;1551;51.046;7.010;2024-03-02T08:11:59;99526.19;;;11.39;62.48
3082;BME280;1551;51.046;7.010;2024-03-02T08:14:48;99527.25;;;11.32;62.54
3082;BME280;1551;51.046;7.010;2024-03-02T08:17:37;99533.25;;;11.57;62.13
3082;BME280;1551;51.046;7.010;2024-03-02T08:20:26;99542.47;;;11.89;60.95
3082;BME280;1551;51.046;7.010;2024-03-02T08:23:15;99540.19;;;12.06;60.13
3082;BME280;1551;51.046;7.010;2024-03-02T08:26:04;99534.19;;;12.30;59.24
3082;BME280;1551;51.046;7.010;2024-03-02T08:28:52;99553.78;;;12.32;58.76
3082;BME280;1551;51.046;7.010;2024-03-02T08:31:41;99539.28;;;12.55;58.38
3082;BME280;1551;51.046;7.010;2024-03-02T08:34:30;99546.94;;;12.79;57.47
3082;BME280;1551;51.046;7.010;2024-03-02T08:37:19;99542.47;;;12.84;56.92
3082;BME280;1551;51.046;7.010;2024-03-02T08:40:08;99544.50;;;12.98;56.60
3082;BME280;1551;51.046;7.010;2024-03-02T08:42:57;99535.00;;;13.00;56.79
3082;BME280;1551;51.046;7.010;2024-03-02T08:45:46;99538.47;;;13.22;56.35
3082;BME280;1551;51.046;7.010;2024-03-02T08:48:36;99526.31;;;13.47;55.47
3082;BME280;1551;51.046;7.010;2024-03-02T08:51:25;99531.63;;;13.43;55.71
3082;BME280;1551;51.046;7.010;2024-03-02T08:54:14;99540.66;;;13.73;55.35
3082;BME280;1551;51.046;7.010;2024-03-02T08:57:04;99529.34;;;13.77;54.76
3082;BME280;1551;51.046;7.010;2024-03-02T08:59:54;99541.16;;;13.61;54.71
3082;BME280;1551;51.046;7.010;2024-03-02T09:02:46;99537.25;;;13.72;54.39
3082;BME280;1551;51.046;7.010;2024-03-02T09:05:34;99565.72;;;13.88;54.30
3082;BME280;1551;51.046;7.010;2024-03-02T09:08:24;99536.91;;;13.60;54.54
3082;BME280;1551;51.046;7.010;2024-03-02T09:11:12;99548.25;;;13.96;54.10
3082;BME280;1551;51.046;7.010;2024-03-02T09:14:02;99527.19;;;14.07;53.46
3082;BME280;1551;51.046;7.010;2024-03-02T09:16:51;99535.88;;;14.24;52.89
3082;BME280;1551;51.046;7.010;2024-03-02T09:19:40;99539.50;;;14.20;52.79
3082;BME280;1551;51.046;7.010;2024-03-02T09:22:29;99542.25;;;14.36;53.21
3082;BME280;1551;51.046;7.010;2024-03-02T09:25:19;99536.59;;;14.85;51.80
3082;BME280;1551;51.046;7.010;2024-03-02T09:28:08;99542.72;;;15.37;49.93
3082;BME280;1551;51.046;7.010;2024-03-02T09:30:57;99537.34;;;15.06;50.49
3082;BME280;1551;51.046;7.010;2024-03-02T09:33:46;99534.44;;;15.31;50.45
3082;BME280;1551;51.046;7.010;2024-03-02T09:36:35;99540.81;;;15.41;49.33
3082;BME280;1551;51.046;7.010;2024-03-02T09:39:24;99534.47;;;15.48;49.44
3082;BME280;1551;51.046;7.010;2024-03-02T09:42:16;99534.50;;;15.82;47.88
3082;BME280;1551;51.046;7.010;2024-03-02T09:45:06;99575.88;;;15.98;47.39
3082;BME280;1551;51.046;7.010;2024-03-02T09:47:55;99539.75;;;15.63;47.34
3082;BME280;1551;51.046;7.010;2024-03-02T09:50:44;99540.94;;;16.08;46.86
3082;BME280;1551;51.046;7.010;2024-03-02T09:53:34;99546.63;;;15.97;46.82
3082;BME280;1551;51.046;7.010;2024-03-02T09:56:23;99522.00;;;16.24;46.34
3082;BME280;1551;51.046;7.010;2024-03-02T09:59:12;99536.94;;;16.83;45.15
3082;BME280;1551;51.046;7.010;2024-03-02T10:02:05;99531.47;;;16.41;45.33
3082;BME280;1551;51.046;7.010;2024-03-02T10:04:55;99531.53;;;16.57;44.78
3082;BME280;1551;51.046;7.010;2024-03-02T10:07:58;99530.78;;;17.17;44.42
3082;BME280;1551;51.046;7.010;2024-03-02T10:10:48;99530.25;;;17.42;43.27
3082;BME280;1551;51.046;7.010;2024-03-02T10:13:36;99529.91;;;17.77;42.44
3082;BME280;1551;51.046;7.010;2024-03-02T10:16:25;99534.09;;;17.80;42.31
3082;BME280;1551;51.046;7.010;2024-03-02T10:19:23;99519.69;;;17.90;42.38
3082;BME280;1551;51.046;7.010;2024-03-02T10:22:12;99529.50;;;17.99;41.93
3082;BME280;1551;51.046;7.010;2024-03-02T10:25:02;99529.53;;;18.70;41.61
3082;BME280;1551;51.046;7.010;2024-03-02T10:27:51;99527.09;;;19.87;39.33
3082;BME280;1551;51.046;7.010;2024-03-02T10:30:40;99542.84;;;19.59;38.80
3082;BME280;1551;51.046;7.010;2024-03-02T10:33:29;99531.38;;;20.14;38.60
3082;BME280;1551;51.046;7.010;2024-03-02T10:36:18;99528.69;;;20.89;37.11
3082;BME280;1551;51.046;7.010;2024-03-02T10:39:07;99528.38;;;21.30;36.08
3082;BME280;1551;51.046;7.010;2024-03-02T10:41:57;99528.16;;;20.97;36.19
3082;BME280;1551;51.046;7.010;2024-03-02T10:44:48;99530.31;;;20.79;35.67
3082;BME280;1551;51.046;7.010;2024-03-02T10:47:38;99526.91;;;20.16;36.61
3082;BME280;1551;51.046;7.010;2024-03-02T10:50:27;99517.44;;;20.52;35.73
3082;BME280;1551;51.046;7.010;2024-03-02T10:53:16;99516.88;;;21.21;35.04
3082;BME280;1551;51.046;7.010;2024-03-02T10:56:07;99518.00;;;21.17;35.02
3082;BME280;1551;51.046;7.010;2024-03-02T10:59:03;99519.72;;;21.30;35.02
3082;BME280;1551;51.046;7.010;2024-03-02T11:01:56;99528.34;;;21.54;34.54
3082;BME280;1551;51.046;7.010;2024-03-02T11:04:50;99524.50;;;20.99;34.75
3082;BME280;1551;51.046;7.010;2024-03-02T11:07:43;99512.94;;;21.51;33.81
3082;BME280;1551;51.046;7.010;2024-03-02T11:10:49;99505.25;;;21.49;34.33
3082;BME280;1551;51.046;7.010;2024-03-02T11:13:44;99504.41;;;21.83;33.61
3082;BME280;1551;51.046;7.010;2024-03-02T11:16:38;99489.88;;;21.57;34.02
3082;BME280;1551;51.046;7.010;2024-03-02T11:19:28;99526.53;;;22.90;32.40
3082;BME280;1551;51.046;7.010;2024-03-02T11:22:19;99506.88;;;22.31;32.62
3082;BME280;1551;51.046;7.010;2024-03-02T11:25:26;99488.06;;;23.67;30.92
3082;BME280;1551;51.046;7.010;2024-03-02T11:28:34;99495.03;;;24.28;30.24
3082;BME280;1551;51.046;7.010;2024-03-02T11:31:57;99503.56;;;24.30;30.30
3082;BME280;1551;51.046;7.010;2024-03-02T11:34:48;99509.72;;;24.20;30.14
3082;BME280;1551;51.046;7.010;2024-03-02T11:37:38;99496.41;;;23.29;31.16
3082;BME280;1551;51.046;7.010;2024-03-02T11:40:28;99508.38;;;23.00;31.83
3082;BME280;1551;51.046;7.010;2024-03-02T11:43:17;99504.06;;;23.10;32.04
3082;BME280;1551;51.046;7.010;2024-03-02T11:46:06;99504.19;;;24.83;30.35
3082;BME280;1551;51.046;7.010;2024-03-02T11:48:59;99513.06;;;25.20;29.27
3082;BME280;1551;51.046;7.010;2024-03-02T11:52:01;99497.06;;;23.42;31.09
3082;BME280;1551;51.046;7.010;2024-03-02T11:54:50;99493.53;;;23.32;31.26
3082;BME280;1551;51.046;7.010;2024-03-02T11:57:40;99489.75;;;24.49;30.17
3082;BME280;1551;51.046;7.010;2024-03-02T12:00:30;99494.75;;;25.11;28.78
3082;BME280;1551;51.046;7.010;2024-03-02T12:03:21;99486.13;;;23.69;30.21
3082;BME280;1551;51.046;7.010;2024-03-02T12:06:11;99491.09;;;22.66;31.92
3082;BME280;1551;51.046;7.010;2024-03-02T12:09:01;99486.47;;;22.36;33.04
3082;BME280;1551;51.046;7.010;2024-03-02T12:12:07;99471.28;;;22.85;32.23
3082;BME280;1551;51.046;7.010;2024-03-02T12:14:56;99476.50;;;21.85;33.40
3082;BME280;1551;51.046;7.010;2024-03-02T12:17:45;99470.06;;;20.11;35.82
3082;BME280;1551;51.046;7.010;2024-03-02T12:20:34;99465.78;;;19.20;38.04
3082;BME280;1551;51.046;7.010;2024-03-02T12:23:23;99476.28;;;19.71;36.98
3082;BME280;1551;51.046;7.010;2024-03-02T12:26:13;99469.38;;;19.05;38.12
3082;BME280;1551;51.046;7.010;2024-03-02T12:29:02;99452.78;;;17.98;39.85
3082;BME280;1551;51.046;7.010;2024-03-02T12:31:52;99447.09;;;18.48;39.83
3082;BME280;1551;51.046;7.010;2024-03-02T12:34:41;99441.41;;;18.70;39.39
3082;BME280;1551;51.046;7.010;2024-03-02T12:37:30;99409.56;;;19.34;38.31
3082;BME280;1551;51.046;7.010;2024-03-02T12:40:21;99422.69;;;19.70;38.15
3082;BME280;1551;51.046;7.010;2024-03-02T12:43:11;99433.59;;;19.10;38.88
3082;BME280;1551;51.046;7.010;2024-03-02T12:46:00;99432.22;;;18.51;40.08
3082;BME280;1551;51.046;7.010;2024-03-02T12:48:49;99429.38;;;18.14;40.65
3082;BME280;1551;51.046;7.010;2024-03-02T12:51:39;99426.66;;;18.29;41.17
3082;BME280;1551;51.046;7.010;2024-03-02T12:54:32;99426.94;;;18.11;41.14
3082;BME280;1551;51.046;7.010;2024-03-02T12:57:25;99419.16;;;18.39;40.58
3082;BME280;1551;51.046;7.010;2024-03-02T13:00:14;99420.53;;;18.59;40.25
3082;BME280;1551;51.046;7.010;2024-03-02T13:03:03;99425.72;;;18.44;40.41
3082;BME280;1551;51.046;7.010;2024-03-02T13:05:52;99421.94;;;18.22;40.95
3082;BME280;1551;51.046;7.010;2024-03-02T13:08:42;99422.03;;;18.20;41.04
3082;BME280;1551;51.046;7.010;2024-03-02T13:11:31;99418.72;;;19.00;40.26
3082;BME280;1551;51.046;7.010;2024-03-02T13:14:21;99405.25;;;19.84;38.24
3082;BME280;1551;51.046;7.010;2024-03-02T13:17:11;99413.53;;;20.87;37.68
3082;BME280;1551;51.046;7.010;2024-03-02T13:20:03;99424.75;;;22.14;35.14
3082;BME280;1551;51.046;7.010;2024-03-02T13:22:59;99413.38;;;22.04;34.72
3082;BME280;1551;51.046;7.010;2024-03-02T13:25:48;99408.50;;;21.32;36.10
3082;BME280;1551;51.046;7.010;2024-03-02T13:28:37;99415.75;;;22.29;34.81
3082;BME280;1551;51.046;7.010;2024-03-02T13:31:26;99406.00;;;23.17;33.09
3082;BME280;1551;51.046;7.010;2024-03-02T13:34:15;99409.25;;;23.41;32.34
3082;BME280;1551;51.046;7.010;2024-03-02T13:37:05;99412.97;;;23.07;32.83
3082;BME280;1551;51.046;7.010;2024-03-02T13:39:54;99406.66;;;24.02;31.77
3082;BME280;1551;51.046;7.010;2024-03-02T13:42:43;99407.16;;;24.07;31.34
3082;BME280;1551;51.046;7.010;2024-03-02T13:45:32;99406.16;;;22.19;33.05
3082;BME280;1551;51.046;7.010;2024-03-02T13:48:21;99392.47;;;21.38;34.58
3082;BME280;1551;51.046;7.010;2024-03-02T13:51:10;99368.63;;;20.96;35.24
3082;BME280;1551;51.046;7.010;2024-03-02T13:53:59;99384.41;;;20.58;36.03
3082;BME280;1551;51.046;7.010;2024-03-02T13:56:48;99389.81;;;20.19;36.66
3082;BME280;1551;51.046;7.010;2024-03-02T13:59:37;99387.91;;;20.70;36.10
3082;BME280;1551;51.046;7.010;2024-03-02T14:02:27;99375.16;;;20.67;36.44
3082;BME280;1551;51.046;7.010;2024-03-02T14:05:16;99365.03;;;21.45;35.35
3082;BME280;1551;51.046;7.010;2024-03-02T14:08:05;99377.19;;;22.55;34.22
3082;BME280;1551;51.046;7.010;2024-03-02T14:10:54;99373.91;;;23.26;33.00
3082;BME280;1551;51.046;7.010;2024-03-02T14:13:46;99374.22;;;23.12;32.97
3082;BME280;1551;51.046;7.010;2024-03-02T14:16:42;99367.03;;;22.30;33.80
3082;BME280;1551;51.046;7.010;2024-03-02T14:19:32;99362.56;;;20.61;35.61
3082;BME280;1551;51.046;7.010;2024-03-02T14:22:21;99358.44;;;19.73;37.27
3082;BME280;1551;51.046;7.010;2024-03-02T14:25:09;99352.41;;;19.60;38.02
3082;BME280;1551;51.046;7.010;2024-03-02T14:27:58;99359.41;;;19.08;38.53
3082;BME280;1551;51.046;7.010;2024-03-02T14:30:48;99360.50;;;18.38;39.99
3082;BME280;1551;51.046;7.010;2024-03-02T14:33:39;99363.06;;;18.11;40.14
3082;BME280;1551;51.046;7.010;2024-03-02T14:36:28;99355.88;;;17.88;40.72
3082;BME280;1551;51.046;7.010;2024-03-02T14:39:17;99353.66;;;17.82;40.83
3082;BME280;1551;51.046;7.010;2024-03-02T14:42:08;99348.06;;;17.46;41.74
3082;BME280;1551;51.046;7.010;2024-03-02T14:44:57;99341.06;;;17.48;42.15
3082;BME280;1551;51.046;7.010;2024-03-02T14:47:46;99347.97;;;17.47;42.56
3082;BME280;1551;51.046;7.010;2024-03-02T14:50:35;99342.50;;;17.38;42.58
3082;BME280;1551;51.046;7.010;2024-03-02T14:53:24;99341.03;;;17.34;42.77
3082;BME280;1551;51.046;7.010;2024-03-02T14:56:13;99341.81;;;17.06;42.74
3082;BME280;1551;51.046;7.010;2024-03-02T14:59:02;99336.25;;;16.98;43.01
3082;BME280;1551;51.046;7.010;2024-03-02T15:01:51;99330.03;;;16.86;43.05
3082;BME280;1551;51.046;7.010;2024-03-02T15:04:40;99330.34;;;16.66;43.45
3082;BME280;1551;51.046;7.010;2024-03-02T15:07:29;99321.19;;;16.61;43.73
3082;BME280;1551;51.046;7.010;2024-03-02T15:10:18;99313.81;;;16.55;43.90
3082;BME280;1551;51.046;7.010;2024-03-02T15:13:08;99314.63;;;16.39;44.05
3082;BME280;1551;51.046;7.010;2024-03-02T15:15:56;99329.84;;;16.44;44.40
3082;BME280;1551;51.046;7.010;2024-03-02T15:18:45;99324.94;;;16.39;44.85
3082;BME280;1551;51.046;7.010;2024-03-02T15:21:35;99323.28;;;16.38;44.93
3082;BME280;1551;51.046;7.010;2024-03-02T15:24:24;99317.06;;;16.27;44.81
3082;BME280;1551;51.046;7.010;2024-03-02T15:27:14;99318.72;;;16.28;44.58
3082;BME280;1551;51.046;7.010;2024-03-02T15:30:03;99319.44;;;16.30;44.58
3082;BME280;1551;51.046;7.010;2024-03-02T15:32:53;99311.91;;;16.27;44.63